KELY/ELY METAR and TAF weather

Enter ICAO airport designator
Station Type Date Time Source
KELY METAR 2022/08/12 14:53 UTC NOAA

KELY 121453Z AUTO 17003KT 10SM CLR 18/13 A3031 RMK AO2 SLP167 T01830133 51007


Station Type Date Time Source
KELY Decoded METAR 2022/08/12 14:53 UTC NOAA

ELY AIRPORT (YELLAND FIELD), NV, United States (KELY) 39-18N 114-51W 1906M
Aug 12, 2022 - 10:53 AM EDT / 2022.08.12 1453 UTC
Wind: from the S (170 degrees) at 3 MPH (3 KT):0
Visibility: 10 mile(s):0
Sky conditions: clear
Temperature: 64.9 F (18.3 C)
Dew Point: 55.9 F (13.3 C)
Relative Humidity: 72%
Pressure (altimeter): 30.31 in. Hg (1026 hPa)
Pressure tendency: 0.02 inches (0.7 hPa) higher than three hours ago
ob: KELY 121453Z AUTO 17003KT 10SM CLR 18/13 A3031 RMK AO2 SLP167 T01830133 51007
cycle: 15

Station Type Date Time Source
KELY TAF 2022/08/12 12:24 UTC NOAA

TAF KELY 121121Z 1212/1312 18009KT P6SM SCT080
FM122200 17010KT P6SM VCTS SCT070CB BKN250
FM130100 18010KT P6SM SCT120 BKN250

Example: see airport list